sensor_id;sensor_type;location;lat;lon;timestamp;P1;durP1;ratioP1;P2;durP2;ratioP2
7233;SDS011;3658;47.992;10.158;2022-11-15T00:02:14;2.33;;;2.13;;
7233;SDS011;3658;47.992;10.158;2022-11-15T00:04:43;2.57;;;2.37;;
7233;SDS011;3658;47.992;10.158;2022-11-15T00:07:09;3.67;;;2.47;;
7233;SDS011;3658;47.992;10.158;2022-11-15T00:09:36;2.40;;;2.13;;
7233;SDS011;3658;47.992;10.158;2022-11-15T00:12:03;2.40;;;2.20;;
7233;SDS011;3658;47.992;10.158;2022-11-15T00:14:30;2.90;;;2.40;;
7233;SDS011;3658;47.992;10.158;2022-11-15T00:16:57;2.53;;;2.30;;
7233;SDS011;3658;47.992;10.158;2022-11-15T00:19:24;2.57;;;2.10;;
7233;SDS011;3658;47.992;10.158;2022-11-15T00:21:52;2.40;;;2.17;;
7233;SDS011;3658;47.992;10.158;2022-11-15T00:24:19;3.93;;;2.30;;
7233;SDS011;3658;47.992;10.158;2022-11-15T00:26:46;2.43;;;1.97;;
7233;SDS011;3658;47.992;10.158;2022-11-15T00:29:13;2.30;;;2.10;;
7233;SDS011;3658;47.992;10.158;2022-11-15T00:31:40;2.60;;;2.37;;
7233;SDS011;3658;47.992;10.158;2022-11-15T00:34:07;2.70;;;2.50;;
7233;SDS011;3658;47.992;10.158;2022-11-15T00:36:35;2.60;;;2.30;;
7233;SDS011;3658;47.992;10.158;2022-11-15T00:39:04;2.40;;;2.20;;
7233;SDS011;3658;47.992;10.158;2022-11-15T00:41:31;2.30;;;2.10;;
7233;SDS011;3658;47.992;10.158;2022-11-15T00:43:58;2.53;;;2.20;;
7233;SDS011;3658;47.992;10.158;2022-11-15T00:46:25;2.50;;;2.30;;
7233;SDS011;3658;47.992;10.158;2022-11-15T00:48:52;2.37;;;2.17;;
7233;SDS011;3658;47.992;10.158;2022-11-15T00:51:19;2.67;;;2.20;;
7233;SDS011;3658;47.992;10.158;2022-11-15T00:53:46;2.43;;;2.23;;
7233;SDS011;3658;47.992;10.158;2022-11-15T00:56:14;2.93;;;2.17;;
7233;SDS011;3658;47.992;10.158;2022-11-15T00:58:41;2.30;;;2.10;;
7233;SDS011;3658;47.992;10.158;2022-11-15T01:01:08;3.63;;;2.37;;
7233;SDS011;3658;47.992;10.158;2022-11-15T01:03:37;2.20;;;2.00;;
7233;SDS011;3658;47.992;10.158;2022-11-15T01:06:05;2.83;;;2.07;;
7233;SDS011;3658;47.992;10.158;2022-11-15T01:08:33;2.97;;;2.20;;
7233;SDS011;3658;47.992;10.158;2022-11-15T01:11:01;2.70;;;2.43;;
7233;SDS011;3658;47.992;10.158;2022-11-15T01:13:30;2.83;;;2.40;;
7233;SDS011;3658;47.992;10.158;2022-11-15T01:15:58;2.20;;;2.00;;
7233;SDS011;3658;47.992;10.158;2022-11-15T01:18:25;2.20;;;2.00;;
7233;SDS011;3658;47.992;10.158;2022-11-15T01:20:52;2.40;;;2.20;;
7233;SDS011;3658;47.992;10.158;2022-11-15T01:23:19;2.17;;;1.97;;
7233;SDS011;3658;47.992;10.158;2022-11-15T01:25:46;2.20;;;2.00;;
7233;SDS011;3658;47.992;10.158;2022-11-15T01:28:13;2.40;;;2.20;;
7233;SDS011;3658;47.992;10.158;2022-11-15T01:30:41;2.27;;;2.07;;
7233;SDS011;3658;47.992;10.158;2022-11-15T01:33:08;2.90;;;2.30;;
7233;SDS011;3658;47.992;10.158;2022-11-15T01:35:37;2.47;;;2.10;;
7233;SDS011;3658;47.992;10.158;2022-11-15T01:38:05;2.30;;;2.10;;
7233;SDS011;3658;47.992;10.158;2022-11-15T01:40:33;2.20;;;2.00;;
7233;SDS011;3658;47.992;10.158;2022-11-15T01:45:46;2.30;;;2.00;;
7233;SDS011;3658;47.992;10.158;2022-11-15T01:48:17;2.30;;;2.10;;
7233;SDS011;3658;47.992;10.158;2022-11-15T01:50:44;2.50;;;2.30;;
7233;SDS011;3658;47.992;10.158;2022-11-15T01:53:11;2.20;;;2.00;;
7233;SDS011;3658;47.992;10.158;2022-11-15T01:55:38;2.30;;;2.00;;
7233;SDS011;3658;47.992;10.158;2022-11-15T01:58:05;2.20;;;2.00;;
7233;SDS011;3658;47.992;10.158;2022-11-15T02:00:33;2.37;;;2.17;;
7233;SDS011;3658;47.992;10.158;2022-11-15T02:03:02;2.57;;;2.00;;
7233;SDS011;3658;47.992;10.158;2022-11-15T02:05:29;2.17;;;1.93;;
7233;SDS011;3658;47.992;10.158;2022-11-15T02:07:57;2.10;;;1.90;;
7233;SDS011;3658;47.992;10.158;2022-11-15T02:10:27;2.03;;;1.90;;
7233;SDS011;3658;47.992;10.158;2022-11-15T02:12:54;2.60;;;2.00;;
7233;SDS011;3658;47.992;10.158;2022-11-15T02:15:23;2.27;;;1.97;;
7233;SDS011;3658;47.992;10.158;2022-11-15T02:17:56;2.43;;;2.17;;
7233;SDS011;3658;47.992;10.158;2022-11-15T02:23:31;2.20;;;2.00;;
7233;SDS011;3658;47.992;10.158;2022-11-15T02:26:32;2.37;;;2.00;;
7233;SDS011;3658;47.992;10.158;2022-11-15T02:29:24;2.10;;;1.90;;
7233;SDS011;3658;47.992;10.158;2022-11-15T02:32:00;2.23;;;2.03;;
7233;SDS011;3658;47.992;10.158;2022-11-15T02:34:35;2.17;;;1.97;;
7233;SDS011;3658;47.992;10.158;2022-11-15T02:37:15;2.40;;;2.20;;
7233;SDS011;3658;47.992;10.158;2022-11-15T02:39:46;2.10;;;1.90;;
7233;SDS011;3658;47.992;10.158;2022-11-15T02:42:19;1.90;;;1.80;;
7233;SDS011;3658;47.992;10.158;2022-11-15T02:45:09;2.17;;;2.00;;
7233;SDS011;3658;47.992;10.158;2022-11-15T02:47:42;2.40;;;2.20;;
7233;SDS011;3658;47.992;10.158;2022-11-15T02:50:12;1.97;;;1.80;;
7233;SDS011;3658;47.992;10.158;2022-11-15T02:52:44;2.27;;;2.07;;
7233;SDS011;3658;47.992;10.158;2022-11-15T02:55:25;1.97;;;1.80;;
7233;SDS011;3658;47.992;10.158;2022-11-15T02:57:57;2.07;;;1.87;;
7233;SDS011;3658;47.992;10.158;2022-11-15T03:00:34;1.93;;;1.80;;
7233;SDS011;3658;47.992;10.158;2022-11-15T03:03:22;2.30;;;2.10;;
7233;SDS011;3658;47.992;10.158;2022-11-15T03:06:03;2.47;;;2.00;;
7233;SDS011;3658;47.992;10.158;2022-11-15T03:08:39;2.50;;;2.30;;
7233;SDS011;3658;47.992;10.158;2022-11-15T03:11:12;2.37;;;2.17;;
7233;SDS011;3658;47.992;10.158;2022-11-15T03:13:43;2.23;;;2.03;;
7233;SDS011;3658;47.992;10.158;2022-11-15T03:16:15;2.50;;;2.30;;
7233;SDS011;3658;47.992;10.158;2022-11-15T03:18:50;1.80;;;1.70;;
7233;SDS011;3658;47.992;10.158;2022-11-15T03:21:20;2.53;;;2.10;;
7233;SDS011;3658;47.992;10.158;2022-11-15T03:23:48;1.73;;;1.60;;
7233;SDS011;3658;47.992;10.158;2022-11-15T03:26:18;2.43;;;2.10;;
7233;SDS011;3658;47.992;10.158;2022-11-15T03:28:48;2.10;;;1.90;;
7233;SDS011;3658;47.992;10.158;2022-11-15T03:31:19;2.23;;;2.03;;
7233;SDS011;3658;47.992;10.158;2022-11-15T03:34:07;2.53;;;1.70;;
7233;SDS011;3658;47.992;10.158;2022-11-15T03:36:41;2.03;;;1.83;;
7233;SDS011;3658;47.992;10.158;2022-11-15T03:39:09;2.23;;;1.77;;
7233;SDS011;3658;47.992;10.158;2022-11-15T03:41:39;2.20;;;2.00;;
7233;SDS011;3658;47.992;10.158;2022-11-15T03:44:12;2.37;;;1.90;;
7233;SDS011;3658;47.992;10.158;2022-11-15T03:46:47;2.30;;;2.10;;
7233;SDS011;3658;47.992;10.158;2022-11-15T03:49:25;2.07;;;1.87;;
7233;SDS011;3658;47.992;10.158;2022-11-15T03:51:56;2.33;;;1.80;;
7233;SDS011;3658;47.992;10.158;2022-11-15T03:54:24;2.10;;;1.90;;
7233;SDS011;3658;47.992;10.158;2022-11-15T03:56:50;2.13;;;1.93;;
7233;SDS011;3658;47.992;10.158;2022-11-15T03:59:17;2.03;;;1.80;;
7233;SDS011;3658;47.992;10.158;2022-11-15T04:01:44;2.37;;;2.17;;
7233;SDS011;3658;47.992;10.158;2022-11-15T04:04:11;5.70;;;2.00;;
7233;SDS011;3658;47.992;10.158;2022-11-15T04:06:39;2.17;;;1.97;;
7233;SDS011;3658;47.992;10.158;2022-11-15T04:09:06;2.00;;;1.90;;
7233;SDS011;3658;47.992;10.158;2022-11-15T04:11:33;2.10;;;1.90;;
7233;SDS011;3658;47.992;10.158;2022-11-15T04:14:00;2.60;;;1.93;;
7233;SDS011;3658;47.992;10.158;2022-11-15T04:16:27;2.07;;;1.87;;
7233;SDS011;3658;47.992;10.158;2022-11-15T04:18:54;1.90;;;1.80;;
7233;SDS011;3658;47.992;10.158;2022-11-15T04:21:35;1.80;;;1.70;;
7233;SDS011;3658;47.992;10.158;2022-11-15T04:24:20;1.73;;;1.63;;
7233;SDS011;3658;47.992;10.158;2022-11-15T04:26:47;2.10;;;1.70;;
7233;SDS011;3658;47.992;10.158;2022-11-15T04:29:14;1.97;;;1.80;;
7233;SDS011;3658;47.992;10.158;2022-11-15T04:31:59;2.13;;;1.93;;
7233;SDS011;3658;47.992;10.158;2022-11-15T04:34:26;1.67;;;1.57;;
7233;SDS011;3658;47.992;10.158;2022-11-15T04:36:53;2.00;;;1.80;;
7233;SDS011;3658;47.992;10.158;2022-11-15T04:39:39;2.03;;;1.83;;
7233;SDS011;3658;47.992;10.158;2022-11-15T04:42:07;2.20;;;2.00;;
7233;SDS011;3658;47.992;10.158;2022-11-15T04:44:34;2.13;;;1.93;;
7233;SDS011;3658;47.992;10.158;2022-11-15T04:47:01;3.13;;;1.77;;
7233;SDS011;3658;47.992;10.158;2022-11-15T04:49:29;2.20;;;1.80;;
7233;SDS011;3658;47.992;10.158;2022-11-15T04:51:56;1.93;;;1.73;;
7233;SDS011;3658;47.992;10.158;2022-11-15T04:54:23;1.70;;;1.60;;
7233;SDS011;3658;47.992;10.158;2022-11-15T04:56:51;1.60;;;1.50;;
7233;SDS011;3658;47.992;10.158;2022-11-15T04:59:18;2.33;;;2.03;;
7233;SDS011;3658;47.992;10.158;2022-11-15T05:01:45;1.80;;;1.70;;
7233;SDS011;3658;47.992;10.158;2022-11-15T05:04:12;2.00;;;1.80;;
7233;SDS011;3658;47.992;10.158;2022-11-15T05:06:44;2.07;;;1.70;;
7233;SDS011;3658;47.992;10.158;2022-11-15T05:09:11;2.00;;;1.80;;
7233;SDS011;3658;47.992;10.158;2022-11-15T05:11:39;1.67;;;1.57;;
7233;SDS011;3658;47.992;10.158;2022-11-15T05:14:07;1.83;;;1.73;;
7233;SDS011;3658;47.992;10.158;2022-11-15T05:16:35;1.90;;;1.80;;
7233;SDS011;3658;47.992;10.158;2022-11-15T05:19:02;1.93;;;1.70;;
7233;SDS011;3658;47.992;10.158;2022-11-15T05:21:29;2.43;;;1.90;;
7233;SDS011;3658;47.992;10.158;2022-11-15T05:23:56;2.00;;;1.80;;
7233;SDS011;3658;47.992;10.158;2022-11-15T05:26:23;1.70;;;1.57;;
7233;SDS011;3658;47.992;10.158;2022-11-15T05:28:53;1.73;;;1.63;;
7233;SDS011;3658;47.992;10.158;2022-11-15T05:31:23;1.90;;;1.63;;
7233;SDS011;3658;47.992;10.158;2022-11-15T05:33:50;1.80;;;1.70;;
7233;SDS011;3658;47.992;10.158;2022-11-15T05:36:18;3.03;;;1.90;;
7233;SDS011;3658;47.992;10.158;2022-11-15T05:38:52;1.80;;;1.67;;
7233;SDS011;3658;47.992;10.158;2022-11-15T05:41:20;1.90;;;1.70;;
7233;SDS011;3658;47.992;10.158;2022-11-15T05:43:50;1.60;;;1.50;;
7233;SDS011;3658;47.992;10.158;2022-11-15T05:46:18;2.03;;;1.83;;
7233;SDS011;3658;47.992;10.158;2022-11-15T05:48:47;1.60;;;1.50;;
7233;SDS011;3658;47.992;10.158;2022-11-15T05:51:16;1.90;;;1.70;;
7233;SDS011;3658;47.992;10.158;2022-11-15T05:53:45;1.80;;;1.70;;
7233;SDS011;3658;47.992;10.158;2022-11-15T05:56:13;1.77;;;1.67;;
7233;SDS011;3658;47.992;10.158;2022-11-15T05:58:40;1.80;;;1.70;;
7233;SDS011;3658;47.992;10.158;2022-11-15T06:01:09;2.10;;;1.80;;
7233;SDS011;3658;47.992;10.158;2022-11-15T06:03:36;1.90;;;1.67;;
7233;SDS011;3658;47.992;10.158;2022-11-15T06:06:04;1.83;;;1.60;;
7233;SDS011;3658;47.992;10.158;2022-11-15T06:08:32;1.70;;;1.60;;
7233;SDS011;3658;47.992;10.158;2022-11-15T06:11:03;2.40;;;1.63;;
7233;SDS011;3658;47.992;10.158;2022-11-15T06:13:31;1.83;;;1.70;;
7233;SDS011;3658;47.992;10.158;2022-11-15T06:15:58;1.60;;;1.50;;
7233;SDS011;3658;47.992;10.158;2022-11-15T06:18:26;1.83;;;1.73;;
7233;SDS011;3658;47.992;10.158;2022-11-15T06:20:53;1.50;;;1.40;;
7233;SDS011;3658;47.992;10.158;2022-11-15T06:23:22;1.63;;;1.53;;
7233;SDS011;3658;47.992;10.158;2022-11-15T06:25:48;1.77;;;1.60;;
7233;SDS011;3658;47.992;10.158;2022-11-15T06:28:15;2.00;;;1.80;;
7233;SDS011;3658;47.992;10.158;2022-11-15T06:30:42;1.73;;;1.63;;
7233;SDS011;3658;47.992;10.158;2022-11-15T06:33:09;1.70;;;1.60;;
7233;SDS011;3658;47.992;10.158;2022-11-15T06:35:36;1.73;;;1.63;;
7233;SDS011;3658;47.992;10.158;2022-11-15T06:38:03;1.93;;;1.80;;
7233;SDS011;3658;47.992;10.158;2022-11-15T06:40:34;2.07;;;1.70;;
7233;SDS011;3658;47.992;10.158;2022-11-15T06:43:01;1.70;;;1.60;;
7233;SDS011;3658;47.992;10.158;2022-11-15T06:45:29;2.00;;;1.80;;
7233;SDS011;3658;47.992;10.158;2022-11-15T06:47:56;2.10;;;1.90;;
7233;SDS011;3658;47.992;10.158;2022-11-15T06:50:23;1.80;;;1.70;;
7233;SDS011;3658;47.992;10.158;2022-11-15T06:52:50;2.20;;;1.80;;
7233;SDS011;3658;47.992;10.158;2022-11-15T06:55:17;2.17;;;1.70;;
7233;SDS011;3658;47.992;10.158;2022-11-15T06:57:49;1.87;;;1.73;;
7233;SDS011;3658;47.992;10.158;2022-11-15T07:00:18;2.67;;;1.80;;
7233;SDS011;3658;47.992;10.158;2022-11-15T07:02:46;2.00;;;1.80;;
7233;SDS011;3658;47.992;10.158;2022-11-15T07:05:13;2.07;;;1.87;;
7233;SDS011;3658;47.992;10.158;2022-11-15T07:07:42;2.50;;;2.10;;
7233;SDS011;3658;47.992;10.158;2022-11-15T07:10:09;8.63;;;2.20;;
7233;SDS011;3658;47.992;10.158;2022-11-15T07:12:36;1.80;;;1.70;;
7233;SDS011;3658;47.992;10.158;2022-11-15T07:15:05;4.90;;;2.43;;
7233;SDS011;3658;47.992;10.158;2022-11-15T07:17:32;3.63;;;1.80;;
7233;SDS011;3658;47.992;10.158;2022-11-15T07:19:59;5.77;;;2.50;;
7233;SDS011;3658;47.992;10.158;2022-11-15T07:22:26;4.97;;;2.37;;
7233;SDS011;3658;47.992;10.158;2022-11-15T07:24:53;3.00;;;2.33;;
7233;SDS011;3658;47.992;10.158;2022-11-15T07:27:20;4.00;;;2.30;;
7233;SDS011;3658;47.992;10.158;2022-11-15T07:29:47;6.23;;;2.43;;
7233;SDS011;3658;47.992;10.158;2022-11-15T07:32:15;3.20;;;2.10;;
7233;SDS011;3658;47.992;10.158;2022-11-15T07:34:42;3.50;;;1.87;;
7233;SDS011;3658;47.992;10.158;2022-11-15T07:37:11;4.33;;;1.93;;
7233;SDS011;3658;47.992;10.158;2022-11-15T07:39:38;9.53;;;2.53;;
7233;SDS011;3658;47.992;10.158;2022-11-15T07:42:05;2.90;;;2.07;;
7233;SDS011;3658;47.992;10.158;2022-11-15T07:44:49;5.97;;;1.80;;
7233;SDS011;3658;47.992;10.158;2022-11-15T07:47:17;3.27;;;2.20;;
7233;SDS011;3658;47.992;10.158;2022-11-15T07:49:44;6.57;;;2.10;;
7233;SDS011;3658;47.992;10.158;2022-11-15T07:52:12;2.43;;;2.00;;
7233;SDS011;3658;47.992;10.158;2022-11-15T07:54:39;3.97;;;2.10;;
7233;SDS011;3658;47.992;10.158;2022-11-15T07:57:06;5.37;;;2.30;;
7233;SDS011;3658;47.992;10.158;2022-11-15T07:59:34;2.87;;;1.90;;
7233;SDS011;3658;47.992;10.158;2022-11-15T08:02:01;5.73;;;2.27;;
7233;SDS011;3658;47.992;10.158;2022-11-15T08:04:29;3.00;;;1.77;;
7233;SDS011;3658;47.992;10.158;2022-11-15T08:06:56;3.57;;;1.97;;
7233;SDS011;3658;47.992;10.158;2022-11-15T08:09:23;4.00;;;2.10;;
7233;SDS011;3658;47.992;10.158;2022-11-15T08:11:50;2.13;;;1.90;;
7233;SDS011;3658;47.992;10.158;2022-11-15T08:14:17;2.93;;;1.80;;
7233;SDS011;3658;47.992;10.158;2022-11-15T08:16:46;3.20;;;2.30;;
7233;SDS011;3658;47.992;10.158;2022-11-15T08:19:13;2.00;;;1.73;;
7233;SDS011;3658;47.992;10.158;2022-11-15T08:21:41;3.10;;;2.27;;
7233;SDS011;3658;47.992;10.158;2022-11-15T08:24:08;3.83;;;2.30;;
7233;SDS011;3658;47.992;10.158;2022-11-15T08:26:36;2.90;;;2.10;;
7233;SDS011;3658;47.992;10.158;2022-11-15T08:29:04;4.60;;;2.17;;
7233;SDS011;3658;47.992;10.158;2022-11-15T08:31:32;2.67;;;2.20;;
7233;SDS011;3658;47.992;10.158;2022-11-15T08:33:59;4.70;;;2.13;;
7233;SDS011;3658;47.992;10.158;2022-11-15T08:36:27;3.87;;;2.10;;
7233;SDS011;3658;47.992;10.158;2022-11-15T08:38:55;3.23;;;2.20;;
7233;SDS011;3658;47.992;10.158;2022-11-15T08:41:23;4.27;;;1.90;;
7233;SDS011;3658;47.992;10.158;2022-11-15T08:43:52;2.47;;;2.03;;
7233;SDS011;3658;47.992;10.158;2022-11-15T08:46:19;1.70;;;1.60;;
7233;SDS011;3658;47.992;10.158;2022-11-15T08:48:46;4.80;;;2.00;;
7233;SDS011;3658;47.992;10.158;2022-11-15T08:51:13;2.07;;;1.87;;
7233;SDS011;3658;47.992;10.158;2022-11-15T08:53:40;3.43;;;1.87;;
7233;SDS011;3658;47.992;10.158;2022-11-15T08:56:09;2.37;;;1.90;;
7233;SDS011;3658;47.992;10.158;2022-11-15T08:58:37;3.90;;;2.30;;
7233;SDS011;3658;47.992;10.158;2022-11-15T09:01:04;2.47;;;1.80;;
7233;SDS011;3658;47.992;10.158;2022-11-15T09:03:31;2.30;;;2.10;;
7233;SDS011;3658;47.992;10.158;2022-11-15T09:05:59;2.90;;;1.83;;
7233;SDS011;3658;47.992;10.158;2022-11-15T09:08:29;2.03;;;1.70;;
7233;SDS011;3658;47.992;10.158;2022-11-15T09:10:56;2.40;;;2.20;;
7233;SDS011;3658;47.992;10.158;2022-11-15T09:13:25;3.27;;;1.90;;
7233;SDS011;3658;47.992;10.158;2022-11-15T09:15:52;2.50;;;1.90;;
7233;SDS011;3658;47.992;10.158;2022-11-15T09:18:19;2.40;;;1.70;;
7233;SDS011;3658;47.992;10.158;2022-11-15T09:20:47;2.07;;;1.87;;
7233;SDS011;3658;47.992;10.158;2022-11-15T09:23:14;2.30;;;1.90;;
7233;SDS011;3658;47.992;10.158;2022-11-15T09:25:41;3.27;;;1.93;;
7233;SDS011;3658;47.992;10.158;2022-11-15T09:28:08;2.20;;;1.80;;
7233;SDS011;3658;47.992;10.158;2022-11-15T09:30:36;2.53;;;1.90;;
7233;SDS011;3658;47.992;10.158;2022-11-15T09:33:06;2.67;;;1.90;;
7233;SDS011;3658;47.992;10.158;2022-11-15T09:35:33;2.00;;;1.60;;
7233;SDS011;3658;47.992;10.158;2022-11-15T09:38:00;2.70;;;1.90;;
7233;SDS011;3658;47.992;10.158;2022-11-15T09:40:29;2.50;;;1.80;;
7233;SDS011;3658;47.992;10.158;2022-11-15T09:43:01;1.97;;;1.40;;
7233;SDS011;3658;47.992;10.158;2022-11-15T09:45:52;1.97;;;1.80;;
7233;SDS011;3658;47.992;10.158;2022-11-15T09:48:32;1.90;;;1.70;;
7233;SDS011;3658;47.992;10.158;2022-11-15T09:51:25;2.00;;;1.80;;
7233;SDS011;3658;47.992;10.158;2022-11-15T09:53:57;2.40;;;1.83;;
7233;SDS011;3658;47.992;10.158;2022-11-15T09:56:29;1.90;;;1.70;;
7233;SDS011;3658;47.992;10.158;2022-11-15T09:59:00;2.20;;;1.60;;
7233;SDS011;3658;47.992;10.158;2022-11-15T10:01:43;3.77;;;2.10;;
7233;SDS011;3658;47.992;10.158;2022-11-15T10:04:20;2.40;;;1.93;;
7233;SDS011;3658;47.992;10.158;2022-11-15T10:06:50;2.53;;;1.70;;
7233;SDS011;3658;47.992;10.158;2022-11-15T10:09:22;1.90;;;1.70;;
7233;SDS011;3658;47.992;10.158;2022-11-15T10:11:52;2.37;;;1.73;;
7233;SDS011;3658;47.992;10.158;2022-11-15T10:14:20;1.90;;;1.70;;
7233;SDS011;3658;47.992;10.158;2022-11-15T10:16:59;2.07;;;1.70;;
7233;SDS011;3658;47.992;10.158;2022-11-15T10:19:38;1.60;;;1.50;;
7233;SDS011;3658;47.992;10.158;2022-11-15T10:22:16;1.70;;;1.60;;
7233;SDS011;3658;47.992;10.158;2022-11-15T10:24:50;1.67;;;1.57;;
7233;SDS011;3658;47.992;10.158;2022-11-15T10:27:25;1.80;;;1.50;;
7233;SDS011;3658;47.992;10.158;2022-11-15T10:29:52;1.90;;;1.67;;
7233;SDS011;3658;47.992;10.158;2022-11-15T10:32:20;1.70;;;1.60;;
7233;SDS011;3658;47.992;10.158;2022-11-15T10:34:48;1.73;;;1.63;;
7233;SDS011;3658;47.992;10.158;2022-11-15T10:37:22;2.17;;;1.60;;
7233;SDS011;3658;47.992;10.158;2022-11-15T10:40:02;2.13;;;1.90;;
7233;SDS011;3658;47.992;10.158;2022-11-15T10:42:30;1.70;;;1.60;;
7233;SDS011;3658;47.992;10.158;2022-11-15T10:44:57;2.10;;;1.50;;
7233;SDS011;3658;47.992;10.158;2022-11-15T10:47:27;1.60;;;1.43;;
7233;SDS011;3658;47.992;10.158;2022-11-15T10:49:57;2.00;;;1.80;;
7233;SDS011;3658;47.992;10.158;2022-11-15T10:52:25;2.10;;;1.90;;
7233;SDS011;3658;47.992;10.158;2022-11-15T10:54:54;1.50;;;1.40;;
7233;SDS011;3658;47.992;10.158;2022-11-15T10:57:24;2.00;;;1.60;;
7233;SDS011;3658;47.992;10.158;2022-11-15T10:59:54;1.60;;;1.50;;
7233;SDS011;3658;47.992;10.158;2022-11-15T11:02:28;1.80;;;1.70;;
7233;SDS011;3658;47.992;10.158;2022-11-15T11:04:57;1.60;;;1.50;;
7233;SDS011;3658;47.992;10.158;2022-11-15T11:07:26;1.87;;;1.53;;
7233;SDS011;3658;47.992;10.158;2022-11-15T11:09:58;1.93;;;1.70;;
7233;SDS011;3658;47.992;10.158;2022-11-15T11:12:27;2.10;;;1.70;;
7233;SDS011;3658;47.992;10.158;2022-11-15T11:14:56;1.90;;;1.63;;
7233;SDS011;3658;47.992;10.158;2022-11-15T11:17:29;1.67;;;1.57;;
7233;SDS011;3658;47.992;10.158;2022-11-15T11:20:18;3.23;;;1.60;;
7233;SDS011;3658;47.992;10.158;2022-11-15T11:22:54;1.60;;;1.50;;
7233;SDS011;3658;47.992;10.158;2022-11-15T11:25:30;1.83;;;1.67;;
7233;SDS011;3658;47.992;10.158;2022-11-15T11:28:14;1.60;;;1.50;;
7233;SDS011;3658;47.992;10.158;2022-11-15T11:30:58;1.80;;;1.60;;
7233;SDS011;3658;47.992;10.158;2022-11-15T11:33:34;1.60;;;1.50;;
7233;SDS011;3658;47.992;10.158;2022-11-15T11:36:11;1.20;;;1.10;;
7233;SDS011;3658;47.992;10.158;2022-11-15T11:38:49;1.50;;;1.40;;
7233;SDS011;3658;47.992;10.158;2022-11-15T11:41:42;1.60;;;1.40;;
7233;SDS011;3658;47.992;10.158;2022-11-15T11:44:24;1.60;;;1.47;;
7233;SDS011;3658;47.992;10.158;2022-11-15T11:46:59;1.40;;;1.30;;
7233;SDS011;3658;47.992;10.158;2022-11-15T11:49:29;1.50;;;1.40;;
7233;SDS011;3658;47.992;10.158;2022-11-15T11:52:01;2.33;;;1.50;;
7233;SDS011;3658;47.992;10.158;2022-11-15T11:54:37;1.60;;;1.50;;
7233;SDS011;3658;47.992;10.158;2022-11-15T11:57:10;1.87;;;1.67;;
7233;SDS011;3658;47.992;10.158;2022-11-15T11:59:46;1.60;;;1.50;;
7233;SDS011;3658;47.992;10.158;2022-11-15T12:02:20;1.43;;;1.33;;
7233;SDS011;3658;47.992;10.158;2022-11-15T12:04:57;1.70;;;1.57;;
7233;SDS011;3658;47.992;10.158;2022-11-15T12:07:34;1.40;;;1.30;;
7233;SDS011;3658;47.992;10.158;2022-11-15T12:10:03;1.53;;;1.43;;
7233;SDS011;3658;47.992;10.158;2022-11-15T12:12:39;1.53;;;1.43;;
7233;SDS011;3658;47.992;10.158;2022-11-15T12:15:12;1.47;;;1.37;;
7233;SDS011;3658;47.992;10.158;2022-11-15T12:17:41;1.70;;;1.60;;
7233;SDS011;3658;47.992;10.158;2022-11-15T12:20:15;1.73;;;1.33;;
7233;SDS011;3658;47.992;10.158;2022-11-15T12:22:46;1.50;;;1.40;;
7233;SDS011;3658;47.992;10.158;2022-11-15T12:25:18;1.70;;;1.50;;
7233;SDS011;3658;47.992;10.158;2022-11-15T12:27:48;1.57;;;1.47;;
7233;SDS011;3658;47.992;10.158;2022-11-15T12:30:20;1.57;;;1.30;;
7233;SDS011;3658;47.992;10.158;2022-11-15T12:32:49;1.70;;;1.60;;
7233;SDS011;3658;47.992;10.158;2022-11-15T12:35:31;1.50;;;1.40;;
7233;SDS011;3658;47.992;10.158;2022-11-15T12:38:01;1.40;;;1.30;;
7233;SDS011;3658;47.992;10.158;2022-11-15T12:40:32;2.00;;;1.70;;
7233;SDS011;3658;47.992;10.158;2022-11-15T12:46:05;1.57;;;1.40;;
7233;SDS011;3658;47.992;10.158;2022-11-15T12:48:47;1.60;;;1.50;;
7233;SDS011;3658;47.992;10.158;2022-11-15T12:57:22;1.13;;;1.10;;
7233;SDS011;3658;47.992;10.158;2022-11-15T12:59:58;1.60;;;1.50;;
7233;SDS011;3658;47.992;10.158;2022-11-15T13:02:29;1.37;;;1.27;;
7233;SDS011;3658;47.992;10.158;2022-11-15T13:07:58;1.67;;;1.50;;
7233;SDS011;3658;47.992;10.158;2022-11-15T13:10:30;1.40;;;1.30;;
7233;SDS011;3658;47.992;10.158;2022-11-15T13:12:59;1.40;;;1.30;;
7233;SDS011;3658;47.992;10.158;2022-11-15T13:15:31;1.60;;;1.50;;
7233;SDS011;3658;47.992;10.158;2022-11-15T13:18:26;1.50;;;1.40;;
7233;SDS011;3658;47.992;10.158;2022-11-15T13:20:55;1.50;;;1.40;;
7233;SDS011;3658;47.992;10.158;2022-11-15T13:23:22;2.63;;;1.53;;
7233;SDS011;3658;47.992;10.158;2022-11-15T13:25:54;1.50;;;1.40;;
7233;SDS011;3658;47.992;10.158;2022-11-15T13:28:37;2.17;;;1.63;;
7233;SDS011;3658;47.992;10.158;2022-11-15T13:31:19;1.70;;;1.60;;
7233;SDS011;3658;47.992;10.158;2022-11-15T13:33:53;1.70;;;1.50;;
7233;SDS011;3658;47.992;10.158;2022-11-15T13:36:23;1.50;;;1.40;;
7233;SDS011;3658;47.992;10.158;2022-11-15T13:38:56;1.47;;;1.37;;
7233;SDS011;3658;47.992;10.158;2022-11-15T13:41:26;1.50;;;1.40;;
7233;SDS011;3658;47.992;10.158;2022-11-15T13:43:55;1.57;;;1.47;;
7233;SDS011;3658;47.992;10.158;2022-11-15T13:46:24;1.50;;;1.40;;
7233;SDS011;3658;47.992;10.158;2022-11-15T13:48:53;1.60;;;1.50;;
7233;SDS011;3658;47.992;10.158;2022-11-15T13:51:24;1.50;;;1.40;;
7233;SDS011;3658;47.992;10.158;2022-11-15T13:54:03;1.40;;;1.30;;
7233;SDS011;3658;47.992;10.158;2022-11-15T13:56:42;1.70;;;1.53;;
7233;SDS011;3658;47.992;10.158;2022-11-15T13:59:13;1.60;;;1.50;;
7233;SDS011;3658;47.992;10.158;2022-11-15T14:01:43;1.50;;;1.40;;
7233;SDS011;3658;47.992;10.158;2022-11-15T14:04:11;1.30;;;1.20;;
7233;SDS011;3658;47.992;10.158;2022-11-15T14:06:43;1.70;;;1.50;;
7233;SDS011;3658;47.992;10.158;2022-11-15T14:12:01;1.57;;;1.47;;
7233;SDS011;3658;47.992;10.158;2022-11-15T14:14:47;1.50;;;1.40;;
7233;SDS011;3658;47.992;10.158;2022-11-15T14:17:18;1.50;;;1.30;;
7233;SDS011;3658;47.992;10.158;2022-11-15T14:19:48;1.57;;;1.47;;
7233;SDS011;3658;47.992;10.158;2022-11-15T14:22:18;1.40;;;1.30;;
7233;SDS011;3658;47.992;10.158;2022-11-15T14:24:50;1.40;;;1.30;;
7233;SDS011;3658;47.992;10.158;2022-11-15T14:27:33;1.50;;;1.40;;
7233;SDS011;3658;47.992;10.158;2022-11-15T14:30:01;1.90;;;1.50;;
7233;SDS011;3658;47.992;10.158;2022-11-15T14:32:29;1.40;;;1.30;;
7233;SDS011;3658;47.992;10.158;2022-11-15T14:35:09;1.47;;;1.37;;
7233;SDS011;3658;47.992;10.158;2022-11-15T14:37:41;1.50;;;1.40;;
7233;SDS011;3658;47.992;10.158;2022-11-15T14:40:08;1.50;;;1.40;;
7233;SDS011;3658;47.992;10.158;2022-11-15T14:42:40;1.40;;;1.30;;
7233;SDS011;3658;47.992;10.158;2022-11-15T14:45:09;1.43;;;1.33;;
7233;SDS011;3658;47.992;10.158;2022-11-15T14:47:38;1.67;;;1.47;;
7233;SDS011;3658;47.992;10.158;2022-11-15T14:50:05;1.30;;;1.20;;
7233;SDS011;3658;47.992;10.158;2022-11-15T14:52:33;1.60;;;1.50;;
7233;SDS011;3658;47.992;10.158;2022-11-15T14:55:00;1.53;;;1.43;;
7233;SDS011;3658;47.992;10.158;2022-11-15T14:57:28;1.30;;;1.20;;
7233;SDS011;3658;47.992;10.158;2022-11-15T14:59:57;1.70;;;1.40;;
7233;SDS011;3658;47.992;10.158;2022-11-15T15:02:25;1.47;;;1.37;;
7233;SDS011;3658;47.992;10.158;2022-11-15T15:04:53;1.67;;;1.27;;
7233;SDS011;3658;47.992;10.158;2022-11-15T15:07:20;1.50;;;1.40;;
7233;SDS011;3658;47.992;10.158;2022-11-15T15:09:47;1.40;;;1.30;;
7233;SDS011;3658;47.992;10.158;2022-11-15T15:12:17;1.50;;;1.40;;
7233;SDS011;3658;47.992;10.158;2022-11-15T15:14:45;1.43;;;1.33;;
7233;SDS011;3658;47.992;10.158;2022-11-15T15:17:15;1.30;;;1.20;;
7233;SDS011;3658;47.992;10.158;2022-11-15T15:19:42;1.30;;;1.20;;
7233;SDS011;3658;47.992;10.158;2022-11-15T15:22:11;1.40;;;1.30;;
7233;SDS011;3658;47.992;10.158;2022-11-15T15:24:41;1.53;;;1.43;;
7233;SDS011;3658;47.992;10.158;2022-11-15T15:27:08;1.50;;;1.40;;
7233;SDS011;3658;47.992;10.158;2022-11-15T15:29:35;1.50;;;1.33;;
7233;SDS011;3658;47.992;10.158;2022-11-15T15:32:02;1.50;;;1.40;;
7233;SDS011;3658;47.992;10.158;2022-11-15T15:34:32;1.30;;;1.20;;
7233;SDS011;3658;47.992;10.158;2022-11-15T15:37:19;1.40;;;1.30;;
7233;SDS011;3658;47.992;10.158;2022-11-15T15:39:49;1.43;;;1.33;;
7233;SDS011;3658;47.992;10.158;2022-11-15T15:42:17;1.40;;;1.30;;